CheckWX is a tool to help pilots better visualize weather data.  It is not intended as a substitute for an official pre-flight weather briefing.

05:19:43 UTC

KMLT METAR
Millinocket Municipal Airport
Millinocket, Maine, USA
Current

27 mins ago

KMLT 200453Z AUTO 26004KT 10SM CLR M16/M21 A3043 RMK AO2 SLP321 T11561211 410891172
Observed
Feb-20 @ 04:53 UTC
Wind
  • 260° at 4 KTS
Visibility
16,093 meters
Flight Rules
VFR
Cloud Levels
  • Clear skies
Temperature
-16°C / 3°F
Dewpoint
-21°C / -6°F
Humidity
66%
Altimeter
30.43" Hg
Pressure
1032.1 hPa
Previous

1 hour ago

KMLT 200353Z AUTO 27008KT 10SM CLR M14/M21 A3042 RMK AO2 SLP318 T11441211
Observed
Feb-20 @ 03:53 UTC
Wind
  • 270° at 8 KTS
Visibility
16,093 meters
Flight Rules
VFR
Cloud Levels
  • Clear skies
Temperature
-14°C / 7°F
Dewpoint
-21°C / -6°F
Humidity
56%
Altimeter
30.42" Hg
Pressure
1031.8 hPa
Previous

2 hours ago

KMLT 200253Z AUTO 27008KT 10SM CLR M14/M21 A3043 RMK AO2 SLP319 T11391211 53013
Observed
Feb-20 @ 02:53 UTC
Wind
  • 270° at 8 KTS
Visibility
16,093 meters
Flight Rules
VFR
Cloud Levels
  • Clear skies
Temperature
-14°C / 7°F
Dewpoint
-21°C / -6°F
Humidity
56%
Altimeter
30.43" Hg
Pressure
1031.9 hPa